Time;durP1;ratioP1;P1;durP2;ratioP2;P2;SDS_P1;SDS_P2;PMS_P1;PMS_P2;Temp;Humidity;BMP_temperature;BMP_pressure;BME280_temperature;BME280_humidity;BME280_pressure;Samples;Min_cycle;Max_cycle;Signal;HPM_P1;HPM_P2
2023/05/19 00:02:44;;;;;;;4.25;3.95;;;;;;;11.58;79.46;95142.69;5046015;28;20209;-72
2023/05/19 00:05:50;;;;;;;5.10;4.70;;;;;;;11.56;79.18;95143.06;5075842;28;20203;-72
2023/05/19 00:08:55;;;;;;;4.45;3.97;;;;;;;11.54;79.18;95139.84;5075411;28;20182;-72
2023/05/19 00:12:01;;;;;;;4.50;4.20;;;;;;;11.58;79.63;95139.94;5074086;28;20211;-72
2023/05/19 00:15:06;;;;;;;4.80;4.40;;;;;;;11.59;79.08;95136.03;5074170;28;20644;-74
2023/05/19 00:18:15;;;;;;;5.00;4.50;;;;;;;11.60;79.44;95136.81;5073872;28;20232;-74
2023/05/19 00:21:21;;;;;;;4.90;4.50;;;;;;;11.60;79.05;95132.09;5074365;28;20255;-74
2023/05/19 00:24:25;;;;;;;5.03;4.45;;;;;;;11.59;79.37;95127.75;5075267;28;20255;-73
2023/05/19 00:27:31;;;;;;;5.30;4.80;;;;;;;11.59;79.53;95124.97;5074041;28;20201;-71
2023/05/19 00:30:10;;;;;;;5.57;5.07;;;;;;;11.60;79.29;95123.81;5074214;28;20220;-71
2023/05/19 00:32:37;;;;;;;5.30;4.80;;;;;;;11.59;79.43;95122.22;5074418;28;20207;-71
2023/05/19 00:35:06;;;;;;;5.03;4.63;;;;;;;11.57;79.97;95119.00;5074734;28;20197;-71
2023/05/19 00:37:34;;;;;;;5.38;4.85;;;;;;;11.58;79.32;95123.34;5074314;28;20197;-71
2023/05/19 00:40:05;;;;;;;5.38;4.95;;;;;;;11.56;79.03;95125.69;5074932;28;20189;-71
2023/05/19 00:42:34;;;;;;;4.97;4.57;;;;;;;11.57;79.75;95132.81;5074015;28;20503;-71
2023/05/19 00:45:01;;;;;;;4.57;4.22;;;;;;;11.55;79.68;95119.38;5074093;28;20236;-71
2023/05/19 00:47:37;;;;;;;4.88;4.47;;;;;;;11.55;79.93;95118.56;5074299;28;20204;-71
2023/05/19 00:50:07;;;;;;;4.78;4.38;;;;;;;11.56;79.91;95114.63;5073702;28;20220;-71
2023/05/19 00:52:35;;;;;;;4.40;4.10;;;;;;;11.54;79.74;95117.75;5074631;28;20220;-71
2023/05/19 00:55:04;;;;;;;4.53;4.22;;;;;;;11.51;79.79;95117.66;5074864;28;20200;-71
2023/05/19 00:57:32;;;;;;;4.53;4.13;;;;;;;11.51;79.62;95115.72;5074904;28;20201;-71
2023/05/19 01:00:01;;;;;;;4.38;4.07;;;;;;;11.49;79.77;95115.25;5073605;28;20221;-72
2023/05/19 01:02:31;;;;;;;5.03;4.63;;;;;;;11.46;79.58;95115.97;5073698;28;20216;-72
2023/05/19 01:05:05;;;;;;;5.03;4.47;;;;;;;11.46;79.84;95118.72;5074811;28;20196;-71
2023/05/19 01:07:33;;;;;;;4.68;4.25;;;;;;;11.45;80.14;95114.38;5074740;28;20235;-71
2023/05/19 01:10:01;;;;;;;4.85;4.45;;;;;;;11.42;80.32;95117.84;5074842;28;20220;-71
2023/05/19 01:12:29;;;;;;;5.20;4.70;;;;;;;11.41;80.87;95112.69;5074727;28;20361;-72
2023/05/19 01:15:00;;;;;;;4.80;4.40;;;;;;;11.35;81.64;95112.16;5074336;28;20201;-72
2023/05/19 01:17:41;;;;;;;4.18;3.88;;;;;;;11.32;82.23;95110.09;5073648;28;20237;-72
2023/05/19 01:20:17;;;;;;;4.35;4.05;;;;;;;11.28;81.81;95111.97;5074405;28;20204;-72
2023/05/19 01:23:22;;;;;;;4.53;4.22;;;;;;;11.25;82.25;95118.19;5074625;28;20200;-72
2023/05/19 01:26:26;;;;;;;4.63;4.25;;;;;;;11.21;81.91;95123.63;5074610;28;20193;-72
2023/05/19 01:29:31;;;;;;;4.88;4.47;;;;;;;11.18;81.78;95113.28;5073711;28;20196;-72
2023/05/19 01:32:04;;;;;;;5.97;4.40;;;;;;;11.17;82.39;95113.66;5074550;28;20230;-72
2023/05/19 01:34:34;;;;;;;4.53;4.10;;;;;;;11.16;82.66;95115.63;5073518;28;20196;-72
2023/05/19 01:37:03;;;;;;;4.32;4.03;;;;;;;11.12;82.99;95120.25;5074449;28;20295;-72
2023/05/19 01:39:33;;;;;;;5.15;4.65;;;;;;;11.07;82.95;95117.75;5074499;28;20189;-71
2023/05/19 01:42:01;;;;;;;4.50;4.10;;;;;;;11.04;83.18;95108.22;5074558;28;20197;-71
2023/05/19 01:44:29;;;;;;;4.57;4.20;;;;;;;11.02;83.19;95121.56;5073669;28;20205;-71
2023/05/19 01:46:56;;;;;;;4.93;4.35;;;;;;;11.01;83.46;95113.66;5075984;28;20201;-71
2023/05/19 01:49:26;;;;;;;5.38;4.97;;;;;;;10.97;83.59;95126.56;5060478;28;20224;-72
2023/05/19 01:51:54;;;;;;;5.15;4.68;;;;;;;10.93;83.50;95125.66;5077941;28;20200;-72
2023/05/19 01:54:22;;;;;;;5.07;4.70;;;;;;;10.90;82.62;95126.38;5077796;28;20200;-72
2023/05/19 01:56:53;;;;;;;5.43;4.70;;;;;;;10.89;82.07;95122.00;5077767;28;20189;-72
2023/05/19 01:59:31;;;;;;;5.47;4.95;;;;;;;10.87;81.78;95127.88;5077035;28;20197;-73
2023/05/19 02:02:04;;;;;;;5.15;4.50;;;;;;;10.86;81.49;95131.81;5078286;28;20192;-73
2023/05/19 02:04:49;;;;;;;4.63;4.28;;;;;;;10.87;81.11;95119.59;5077410;28;20204;-73
2023/05/19 02:07:23;;;;;;;5.28;4.55;;;;;;;10.83;81.44;95126.97;5076613;28;20215;-74
2023/05/19 02:09:54;;;;;;;5.60;5.10;;;;;;;10.82;81.06;95117.91;5076346;28;20227;-74
2023/05/19 02:12:25;;;;;;;5.60;4.70;;;;;;;10.83;81.71;95124.22;5077390;28;20208;-74
2023/05/19 02:15:00;;;;;;;5.22;4.82;;;;;;;10.84;81.13;95129.38;5077592;28;20190;-74
2023/05/19 02:17:27;;;;;;;5.50;5.00;;;;;;;10.84;81.21;95128.56;5075745;28;20680;-74
2023/05/19 02:19:57;;;;;;;5.30;4.80;;;;;;;10.84;81.68;95129.38;5077287;28;20201;-74
2023/05/19 02:22:25;;;;;;;5.82;5.32;;;;;;;10.83;82.24;95138.03;5076267;28;20200;-74
2023/05/19 02:24:55;;;;;;;6.10;5.60;;;;;;;10.83;82.62;95132.50;5075976;28;20208;-74
2023/05/19 02:27:23;;;;;;;6.57;6.07;;;;;;;10.81;82.63;95145.84;5077279;28;20268;-73
2023/05/19 02:29:52;;;;;;;6.30;5.70;;;;;;;10.80;81.90;95138.72;5076878;28;20258;-74
2023/05/19 02:32:20;;;;;;;7.05;6.38;;;;;;;10.82;81.68;95134.47;5077142;28;20254;-74
2023/05/19 02:34:48;;;;;;;6.60;6.03;;;;;;;10.82;81.13;95133.63;5075913;28;20197;-74
2023/05/19 02:37:22;;;;;;;6.30;5.78;;;;;;;10.81;81.37;95134.81;5077404;28;20197;-74
2023/05/19 02:39:51;;;;;;;6.20;5.72;;;;;;;10.79;81.02;95121.38;5077006;28;20226;-74
2023/05/19 02:42:17;;;;;;;7.20;6.50;;;;;;;10.77;81.35;95133.91;5075738;28;20193;-73
2023/05/19 02:44:46;;;;;;;6.53;5.95;;;;;;;10.77;81.84;95125.63;5076558;28;20200;-73
2023/05/19 02:47:16;;;;;;;6.97;6.38;;;;;;;10.77;81.28;95134.69;5076908;28;20182;-73
2023/05/19 02:49:45;;;;;;;6.88;6.32;;;;;;;10.80;81.43;95141.47;5075963;28;20224;-73
2023/05/19 02:52:13;;;;;;;7.18;6.47;;;;;;;10.82;81.26;95144.66;5076802;28;20200;-74
2023/05/19 02:54:46;;;;;;;7.80;7.00;;;;;;;10.83;81.21;95141.56;5076188;28;20254;-73
2023/05/19 02:57:16;;;;;;;7.68;6.97;;;;;;;10.83;81.37;95146.31;5075600;28;20197;-73
2023/05/19 02:59:44;;;;;;;7.80;7.10;;;;;;;10.82;81.41;95130.88;5076175;28;20197;-74
2023/05/19 03:02:13;;;;;;;7.35;6.75;;;;;;;10.78;81.43;95144.59;5076030;28;20197;-72
2023/05/19 03:04:41;;;;;;;7.63;6.93;;;;;;;10.80;81.49;95152.50;5076747;28;20193;-76
2023/05/19 03:07:12;;;;;;;7.20;6.70;;;;;;;10.85;81.47;95157.75;5075751;28;20197;-73
2023/05/19 03:09:39;;;;;;;9.20;8.27;;;;;;;10.90;81.46;95152.00;5075953;28;20205;-72
2023/05/19 03:12:13;;;;;;;9.00;8.15;;;;;;;10.90;81.50;95151.22;5076038;28;20216;-72
2023/05/19 03:14:41;;;;;;;8.35;7.45;;;;;;;10.91;81.25;95148.09;5076387;28;20381;-75
2023/05/19 03:17:09;;;;;;;7.75;6.95;;;;;;;10.92;81.23;95155.19;5076237;28;20229;-66
2023/05/19 03:19:40;;;;;;;7.72;7.03;;;;;;;10.92;81.00;95152.44;5074481;28;20200;-65
2023/05/19 03:22:12;;;;;;;7.97;7.13;;;;;;;10.90;81.53;95142.94;5075169;28;20236;-65
2023/05/19 03:24:40;;;;;;;8.73;7.18;;;;;;;10.89;81.37;95157.88;5076120;28;20181;-65
2023/05/19 03:27:13;;;;;;;7.90;7.10;;;;;;;10.86;81.18;95145.59;5075129;28;20200;-65
2023/05/19 03:30:00;;;;;;;7.35;6.65;;;;;;;10.85;81.46;95149.50;5074790;28;20197;-65
2023/05/19 03:33:09;;;;;;;7.97;7.28;;;;;;;10.88;81.60;95154.31;5047912;28;20208;-65
2023/05/19 03:36:15;;;;;;;8.18;7.43;;;;;;;10.88;81.32;95148.78;5075604;28;20193;-65
2023/05/19 03:39:25;;;;;;;8.55;7.55;;;;;;;10.89;81.40;95158.66;5074615;28;20201;-65
2023/05/19 03:42:34;;;;;;;8.45;7.65;;;;;;;10.90;81.22;95151.22;5075075;28;20204;-65
2023/05/19 03:45:43;;;;;;;10.23;8.57;;;;;;;10.92;81.23;95157.16;5074449;28;20209;-65
2023/05/19 03:48:47;;;;;;;8.15;7.35;;;;;;;10.93;80.77;95153.25;5057988;28;20212;-65
2023/05/19 03:51:52;;;;;;;8.43;7.63;;;;;;;10.92;81.04;95148.88;5074632;28;20216;-65
2023/05/19 03:54:58;;;;;;;8.07;7.28;;;;;;;10.91;80.94;95153.59;5074684;28;20204;-65
2023/05/19 03:58:03;;;;;;;8.02;7.22;;;;;;;10.94;80.98;95157.63;5074637;28;20200;-65
2023/05/19 04:01:11;;;;;;;7.95;7.15;;;;;;;10.97;80.97;95163.25;5074790;28;20506;-65
2023/05/19 04:04:20;;;;;;;7.78;7.03;;;;;;;11.01;81.65;95160.56;5074490;28;20230;-65
2023/05/19 04:07:26;;;;;;;8.50;7.65;;;;;;;11.05;81.34;95161.47;5075037;28;20181;-66
2023/05/19 04:10:31;;;;;;;9.25;8.35;;;;;;;11.05;80.87;95161.47;5074176;28;20207;-66
2023/05/19 04:13:40;;;;;;;8.95;8.10;;;;;;;11.09;80.99;95165.13;5074416;28;20204;-65
2023/05/19 04:16:46;;;;;;;9.10;8.20;;;;;;;11.16;81.29;95167.28;5073425;28;20530;-69
2023/05/19 04:19:51;;;;;;;8.95;8.10;;;;;;;11.19;81.20;95167.38;5075035;28;20189;-69
2023/05/19 04:23:00;;;;;;;8.63;7.85;;;;;;;11.22;80.63;95161.16;5074352;28;20192;-68
2023/05/19 04:26:13;;;;;;;8.43;7.55;;;;;;;11.28;80.70;95162.47;5074965;28;20251;-68
2023/05/19 04:29:19;;;;;;;8.02;7.22;;;;;;;11.31;80.99;95172.81;5074979;28;20181;-68
2023/05/19 04:31:54;;;;;;;8.73;7.90;;;;;;;11.39;80.50;95173.78;5074334;28;20224;-68
2023/05/19 04:34:28;;;;;;;9.20;8.40;;;;;;;11.43;80.72;95176.66;5075241;28;20189;-68
2023/05/19 04:36:57;;;;;;;8.95;8.10;;;;;;;11.44;80.85;95178.28;5075002;28;20181;-68
2023/05/19 04:39:24;;;;;;;8.85;8.05;;;;;;;11.46;80.71;95182.25;5074097;28;20220;-72
2023/05/19 04:41:53;;;;;;;9.52;7.93;;;;;;;11.46;80.52;95176.72;5074368;28;20204;-67
2023/05/19 04:44:21;;;;;;;8.43;7.68;;;;;;;11.47;80.53;95177.53;5074864;28;20634;-68
2023/05/19 04:46:58;;;;;;;8.88;8.02;;;;;;;11.48;80.93;95177.19;5074983;28;20254;-67
2023/05/19 04:49:26;;;;;;;9.25;8.35;;;;;;;11.57;80.43;95183.31;5074729;28;20204;-69
2023/05/19 04:51:55;;;;;;;9.73;8.82;;;;;;;11.64;80.35;95182.72;5074954;28;20205;-66
2023/05/19 04:54:23;;;;;;;10.50;9.60;;;;;;;11.63;79.86;95183.88;5074057;28;20219;-66
2023/05/19 04:56:51;;;;;;;10.45;9.48;;;;;;;11.60;80.27;95189.31;5074847;28;20215;-66
2023/05/19 04:59:19;;;;;;;9.63;8.80;;;;;;;11.55;80.26;95177.38;5074591;28;20200;-66
2023/05/19 05:01:48;;;;;;;10.13;9.20;;;;;;;11.56;80.13;95186.47;5073860;28;20223;-66
2023/05/19 05:04:20;;;;;;;9.38;8.57;;;;;;;11.56;80.32;95180.94;5073914;28;20262;-66
2023/05/19 05:06:49;;;;;;;10.80;9.80;;;;;;;11.60;80.78;95181.03;5074474;28;20239;-67
2023/05/19 05:09:18;;;;;;;9.98;8.98;;;;;;;11.60;80.12;95189.31;5073927;28;20193;-66
2023/05/19 05:11:47;;;;;;;10.63;9.20;;;;;;;11.61;80.78;95183.41;5074755;28;20209;-66
2023/05/19 05:14:16;;;;;;;9.65;8.85;;;;;;;11.66;80.57;95191.44;5073741;28;20278;-66
2023/05/19 05:16:47;;;;;;;9.07;8.23;;;;;;;11.69;80.69;95198.22;5074645;28;20237;-66
2023/05/19 05:19:18;;;;;;;10.38;9.18;;;;;;;11.70;80.16;95186.81;5074433;28;20209;-66
2023/05/19 05:21:46;;;;;;;9.32;8.52;;;;;;;11.72;79.98;95194.72;5078177;28;20196;-67
2023/05/19 05:24:17;;;;;;;10.25;9.30;;;;;;;11.75;80.43;95186.53;5077638;28;20189;-67
2023/05/19 05:26:49;;;;;;;9.15;8.35;;;;;;;11.77;80.35;95189.75;5077398;28;20280;-67
2023/05/19 05:29:17;;;;;;;10.15;9.25;;;;;;;11.80;79.95;95191.81;5077380;28;20204;-67
2023/05/19 05:31:47;;;;;;;9.73;8.82;;;;;;;11.82;79.82;95178.41;5077667;28;20217;-67
2023/05/19 05:34:17;;;;;;;10.75;9.65;;;;;;;11.83;80.05;95195.78;5077455;28;20196;-67
2023/05/19 05:36:46;;;;;;;8.70;7.90;;;;;;;11.85;79.60;95189.97;5077911;28;20234;-67
2023/05/19 05:39:13;;;;;;;9.77;8.90;;;;;;;11.89;79.98;95188.06;5078216;28;20189;-67
2023/05/19 05:41:41;;;;;;;9.55;8.65;;;;;;;11.94;80.12;95191.34;5077248;28;20192;-67
2023/05/19 05:44:13;;;;;;;9.52;8.63;;;;;;;11.99;80.24;95193.06;5077394;28;20193;-67
2023/05/19 05:46:45;;;;;;;10.02;9.13;;;;;;;12.04;80.20;95195.53;5078111;28;20193;-67
2023/05/19 05:49:40;;;;;;;10.55;9.45;;;;;;;12.08;80.21;95192.88;5077982;28;20272;-66
2023/05/19 05:52:12;;;;;;;9.27;8.38;;;;;;;12.09;79.84;95200.81;5077062;28;20213;-66
2023/05/19 05:54:43;;;;;;;10.20;9.02;;;;;;;12.14;79.76;95196.97;5077962;28;20182;-66
2023/05/19 05:57:14;;;;;;;9.73;8.55;;;;;;;12.17;79.63;95202.56;5076886;28;20193;-66
2023/05/19 05:59:45;;;;;;;9.80;8.85;;;;;;;12.22;79.89;95190.44;5077491;28;20193;-66
2023/05/19 06:02:15;;;;;;;10.77;9.68;;;;;;;12.25;80.35;95204.34;5077922;28;20569;-66
2023/05/19 06:04:48;;;;;;;9.55;8.65;;;;;;;12.29;79.97;95209.94;5076559;28;20201;-66
2023/05/19 06:07:18;;;;;;;10.07;9.07;;;;;;;12.34;79.98;95211.63;5076755;28;20218;-66
2023/05/19 06:09:46;;;;;;;9.43;8.52;;;;;;;12.36;79.86;95218.41;5077694;28;20217;-67
2023/05/19 06:12:15;;;;;;;10.65;9.05;;;;;;;12.38;79.54;95216.09;5077564;28;20224;-66
2023/05/19 06:14:44;;;;;;;9.18;8.38;;;;;;;12.44;79.93;95219.38;5077321;28;20177;-66
2023/05/19 06:17:14;;;;;;;8.88;8.05;;;;;;;12.46;80.25;95212.31;5077431;28;20237;-66
2023/05/19 06:19:42;;;;;;;9.27;8.30;;;;;;;12.51;79.93;95212.03;5076655;28;20204;-66
2023/05/19 06:22:17;;;;;;;8.45;7.65;;;;;;;12.56;79.26;95216.47;5077307;28;20185;-66
2023/05/19 06:24:45;;;;;;;7.90;7.10;;;;;;;12.60;78.27;95214.59;5076501;28;20211;-70
2023/05/19 06:27:14;;;;;;;8.88;7.07;;;;;;;12.63;77.81;95215.81;5075855;28;20217;-73
2023/05/19 06:29:42;;;;;;;8.35;7.47;;;;;;;12.66;77.67;95220.63;5077414;28;20287;-72
2023/05/19 06:32:11;;;;;;;7.43;6.72;;;;;;;12.68;78.05;95219.13;5076245;28;20217;-69
2023/05/19 06:34:39;;;;;;;7.85;7.00;;;;;;;12.73;78.38;95218.03;5077013;28;20219;-70
2023/05/19 06:37:18;;;;;;;8.07;7.30;;;;;;;12.77;78.06;95219.69;5077465;28;20197;-69
2023/05/19 06:39:48;;;;;;;7.97;7.18;;;;;;;12.81;78.07;95221.75;5076586;28;20221;-70
2023/05/19 06:42:24;;;;;;;7.70;7.00;;;;;;;12.85;78.70;95212.34;5077122;28;20243;-71
2023/05/19 06:44:55;;;;;;;7.00;6.10;;;;;;;12.89;78.16;95213.22;5076175;28;20290;-71
2023/05/19 06:47:27;;;;;;;7.68;6.88;;;;;;;12.96;78.42;95218.09;5076352;28;20205;-70
2023/05/19 06:49:58;;;;;;;7.13;6.35;;;;;;;13.01;78.01;95217.81;5077236;28;20177;-70
2023/05/19 06:52:25;;;;;;;9.75;8.75;;;;;;;13.07;77.84;95221.06;5076920;28;20201;-69
2023/05/19 06:54:57;;;;;;;8.80;6.68;;;;;;;13.12;77.20;95212.50;5059177;28;20201;-73
2023/05/19 06:57:25;;;;;;;7.45;6.75;;;;;;;13.15;76.59;95220.06;5076989;28;20181;-67
2023/05/19 06:59:54;;;;;;;6.20;5.60;;;;;;;13.19;76.50;95215.41;5076635;28;20181;-67
2023/05/19 07:02:23;;;;;;;6.65;5.95;;;;;;;13.22;75.44;95228.53;5075482;28;20609;-68
2023/05/19 07:04:54;;;;;;;6.93;6.30;;;;;;;13.26;75.24;95220.31;5076770;28;20196;-68
2023/05/19 07:07:23;;;;;;;6.20;5.60;;;;;;;13.27;74.62;95227.44;5076009;28;20205;-67
2023/05/19 07:09:52;;;;;;;7.25;6.07;;;;;;;13.29;74.66;95225.91;5076203;28;20242;-67
2023/05/19 07:12:20;;;;;;;6.68;5.90;;;;;;;13.34;74.97;95231.16;5075609;28;20217;-68
2023/05/19 07:14:48;;;;;;;6.78;6.07;;;;;;;13.39;75.00;95225.31;5076057;28;20196;-68
2023/05/19 07:17:19;;;;;;;6.20;5.70;;;;;;;13.45;75.27;95225.81;5075424;28;20225;-67
2023/05/19 07:19:47;;;;;;;6.68;6.07;;;;;;;13.55;75.67;95229.97;5076545;28;20201;-67
2023/05/19 07:22:17;;;;;;;6.82;6.22;;;;;;;13.60;75.83;95230.44;5076421;28;20182;-68
2023/05/19 07:24:44;;;;;;;7.32;6.55;;;;;;;13.67;76.17;95236.13;5075554;28;20254;-68
2023/05/19 07:27:12;;;;;;;6.50;5.95;;;;;;;13.75;75.25;95241.78;5075229;28;20197;-68
2023/05/19 07:29:45;;;;;;;6.78;6.13;;;;;;;13.81;74.30;95238.34;5075506;28;20196;-68
2023/05/19 07:32:13;;;;;;;6.63;5.93;;;;;;;13.85;73.67;95241.19;5076065;28;20236;-69
2023/05/19 07:34:42;;;;;;;6.97;6.22;;;;;;;13.89;72.12;95234.50;5075285;28;20196;-69
2023/05/19 07:37:10;;;;;;;7.00;6.30;;;;;;;13.97;71.68;95241.78;5075113;28;20215;-69
2023/05/19 07:39:37;;;;;;;9.10;7.22;;;;;;;14.08;71.14;95235.59;5075558;28;20212;-68
2023/05/19 07:42:04;;;;;;;7.93;7.18;;;;;;;14.12;70.51;95234.50;5075227;28;20230;-70
2023/05/19 07:44:34;;;;;;;8.40;7.60;;;;;;;14.14;70.68;95237.69;5075240;28;20222;-71
2023/05/19 07:47:10;;;;;;;7.75;6.95;;;;;;;14.17;71.32;95236.16;5075058;28;20193;-70
2023/05/19 07:49:38;;;;;;;7.18;6.57;;;;;;;14.19;70.27;95233.81;5075991;28;20276;-70
2023/05/19 07:52:07;;;;;;;7.97;7.18;;;;;;;14.20;70.64;95233.44;5074912;28;20221;-68
2023/05/19 07:54:34;;;;;;;6.97;6.32;;;;;;;14.26;71.02;95227.56;5075627;28;20521;-70
2023/05/19 07:57:04;;;;;;;7.50;6.80;;;;;;;14.30;69.72;95226.44;5075244;28;20214;-71
2023/05/19 07:59:32;;;;;;;9.25;7.15;;;;;;;14.32;70.09;95228.88;5075759;28;20189;-71
2023/05/19 08:02:01;;;;;;;8.35;7.43;;;;;;;14.40;70.15;95225.03;5075594;28;20573;-71
2023/05/19 08:04:35;;;;;;;8.05;7.25;;;;;;;14.48;70.26;95229.50;5075572;28;20196;-72
2023/05/19 08:07:07;;;;;;;7.93;7.20;;;;;;;14.53;68.90;95237.53;5074725;28;20225;-70
2023/05/19 08:09:35;;;;;;;7.88;7.18;;;;;;;14.59;69.52;95221.34;5075878;28;20200;-73
2023/05/19 08:12:03;;;;;;;10.13;7.40;;;;;;;14.67;69.37;95221.09;5075007;28;20213;-72
2023/05/19 08:14:32;;;;;;;8.50;7.60;;;;;;;14.78;69.15;95232.34;5074838;28;20277;-72
2023/05/19 08:17:00;;;;;;;8.77;7.97;;;;;;;14.86;67.99;95219.34;5074891;28;20233;-71
2023/05/19 08:19:30;;;;;;;8.63;7.60;;;;;;;14.91;67.65;95228.16;5074981;28;20666;-67
2023/05/19 08:22:02;;;;;;;9.07;8.18;;;;;;;14.98;67.92;95224.66;5075631;28;20428;-67
2023/05/19 08:24:32;;;;;;;9.02;8.20;;;;;;;15.10;68.06;95218.84;5075828;28;20195;-67
2023/05/19 08:27:03;;;;;;;9.05;8.15;;;;;;;15.20;68.73;95222.94;5074672;28;20288;-69
2023/05/19 08:29:32;;;;;;;8.70;7.82;;;;;;;15.30;68.52;95219.50;5074803;28;20199;-69
2023/05/19 08:32:01;;;;;;;9.85;8.85;;;;;;;15.44;68.96;95209.72;5073928;28;20231;-69
2023/05/19 08:34:38;;;;;;;11.02;9.52;;;;;;;15.68;71.55;95209.19;5075650;28;20181;-69
2023/05/19 08:37:07;;;;;;;10.80;9.63;;;;;;;15.91;68.98;95211.81;5074305;28;20209;-69
2023/05/19 08:39:36;;;;;;;10.52;9.43;;;;;;;16.17;69.77;95210.81;5074777;28;20205;-70
2023/05/19 08:42:06;;;;;;;9.30;8.35;;;;;;;16.34;69.18;95212.97;5075625;28;20189;-69
2023/05/19 08:44:33;;;;;;;10.63;9.43;;;;;;;16.59;68.37;95212.31;5075436;28;20201;-69
2023/05/19 08:47:12;;;;;;;10.68;9.20;;;;;;;16.67;66.94;95208.41;5075331;28;20189;-69
2023/05/19 08:49:50;;;;;;;10.73;8.90;;;;;;;16.78;66.60;95206.50;5074993;28;20203;-72
2023/05/19 08:52:25;;;;;;;11.02;9.95;;;;;;;16.90;65.22;95205.34;5075154;28;20209;-72
2023/05/19 08:54:55;;;;;;;12.23;9.90;;;;;;;17.03;64.73;95214.16;5076124;28;20204;-72
2023/05/19 08:57:28;;;;;;;10.50;9.45;;;;;;;17.03;63.83;95212.19;5079397;28;20197;-73
2023/05/19 08:59:56;;;;;;;11.40;10.02;;;;;;;17.04;63.28;95213.00;5078925;28;20200;-73
2023/05/19 09:02:24;;;;;;;11.57;8.85;;;;;;;17.14;65.18;95209.47;5078872;28;20193;-73
2023/05/19 09:04:54;;;;;;;10.65;9.55;;;;;;;17.07;62.74;95203.84;5079199;28;20181;-73
2023/05/19 09:07:22;;;;;;;11.13;9.45;;;;;;;17.20;63.08;95213.44;5078475;28;20208;-74
2023/05/19 09:09:52;;;;;;;13.00;9.48;;;;;;;17.37;63.21;95202.75;5078781;28;20208;-72
2023/05/19 09:12:24;;;;;;;10.40;9.27;;;;;;;17.61;63.49;95202.03;5078333;28;20226;-72
2023/05/19 09:14:55;;;;;;;10.30;8.93;;;;;;;17.70;60.88;95194.06;5078816;28;20181;-73
2023/05/19 09:17:24;;;;;;;9.65;8.43;;;;;;;17.72;59.40;95193.66;5077553;28;20232;-73
2023/05/19 09:19:54;;;;;;;10.55;9.48;;;;;;;17.91;61.46;95187.75;5076449;28;20208;-73
2023/05/19 09:22:27;;;;;;;10.63;9.63;;;;;;;18.07;61.07;95190.16;5078315;28;20197;-73
2023/05/19 09:24:55;;;;;;;10.23;9.07;;;;;;;18.19;61.87;95191.75;5078203;28;20266;-73
2023/05/19 09:27:24;;;;;;;12.00;9.25;;;;;;;18.34;61.10;95192.53;5078780;28;20193;-73
2023/05/19 09:29:55;;;;;;;9.68;8.77;;;;;;;18.44;57.68;95189.72;5078665;28;20304;-73
2023/05/19 09:32:30;;;;;;;9.85;8.88;;;;;;;18.55;60.97;95175.75;5077946;28;20308;-72
2023/05/19 09:34:59;;;;;;;10.43;9.25;;;;;;;18.29;57.01;95191.75;5077715;28;20215;-73
2023/05/19 09:37:28;;;;;;;9.98;8.98;;;;;;;18.07;57.95;95184.56;5077788;28;20192;-73
2023/05/19 09:40:01;;;;;;;9.93;8.90;;;;;;;18.07;59.50;95194.94;5077172;28;20209;-74
2023/05/19 09:42:30;;;;;;;9.35;8.45;;;;;;;18.01;57.70;95195.34;5078301;28;20196;-69
2023/05/19 09:45:01;;;;;;;9.82;8.82;;;;;;;18.17;57.67;95189.38;5077500;28;20204;-68
2023/05/19 09:47:36;;;;;;;10.27;9.27;;;;;;;18.42;58.94;95180.97;5077314;28;20185;-69
2023/05/19 09:50:12;;;;;;;11.27;9.60;;;;;;;18.29;56.20;95183.38;5078297;28;20188;-68
2023/05/19 09:52:43;;;;;;;10.07;9.13;;;;;;;18.44;58.52;95180.56;5077187;28;20312;-67
2023/05/19 09:55:15;;;;;;;9.85;8.85;;;;;;;18.66;57.36;95167.34;5077900;28;20601;-68
2023/05/19 09:57:45;;;;;;;12.35;9.40;;;;;;;18.80;58.25;95177.72;5077382;28;20650;-68
2023/05/19 10:00:16;;;;;;;9.32;8.40;;;;;;;18.98;57.08;95168.06;5077415;28;20205;-71
2023/05/19 10:02:46;;;;;;;10.88;9.77;;;;;;;19.17;56.85;95171.59;5076812;28;20200;-73
2023/05/19 10:05:21;;;;;;;10.13;9.07;;;;;;;19.17;53.50;95166.81;5077547;28;20200;-71
2023/05/19 10:07:55;;;;;;;10.27;9.18;;;;;;;19.33;56.69;95165.53;5077036;28;20254;-71
2023/05/19 10:10:26;;;;;;;11.30;9.40;;;;;;;19.52;53.77;95169.84;5077156;28;20282;-72
2023/05/19 10:12:56;;;;;;;10.23;9.23;;;;;;;19.66;53.74;95162.19;5076573;28;20240;-71
2023/05/19 10:15:29;;;;;;;11.07;9.98;;;;;;;19.59;51.84;95155.81;5077210;28;20197;-71
2023/05/19 10:17:58;;;;;;;9.90;8.52;;;;;;;19.66;53.66;95153.78;5076447;28;20294;-72
2023/05/19 10:20:28;;;;;;;9.80;8.80;;;;;;;19.87;54.57;95155.66;5077847;28;20181;-71
2023/05/19 10:22:56;;;;;;;10.82;9.73;;;;;;;19.90;52.29;95154.03;5076801;28;20601;-70
2023/05/19 10:25:24;;;;;;;10.30;9.30;;;;;;;19.94;51.79;95152.00;5076710;28;20200;-70
2023/05/19 10:27:57;;;;;;;10.35;9.27;;;;;;;20.02;50.70;95145.13;5077036;28;20534;-72
2023/05/19 10:30:30;;;;;;;10.38;9.23;;;;;;;20.17;51.68;95148.59;5077866;28;20193;-71
2023/05/19 10:32:59;;;;;;;10.68;9.65;;;;;;;20.02;48.04;95150.72;5077454;28;20212;-72
2023/05/19 10:35:46;;;;;;;10.27;9.38;;;;;;;19.52;50.12;95150.25;5077621;28;20189;-72
2023/05/19 10:38:28;;;;;;;10.75;9.68;;;;;;;19.44;51.03;95146.72;5077370;28;20243;-72
2023/05/19 10:41:05;;;;;;;10.32;9.32;;;;;;;19.79;52.96;95147.69;5076644;28;20205;-73
2023/05/19 10:44:04;;;;;;;8.45;7.55;;;;;;;20.11;50.09;95147.44;5077662;28;20193;-67
2023/05/19 10:46:36;;;;;;;10.98;9.68;;;;;;;20.35;50.70;95132.44;5076190;28;20254;-73
2023/05/19 10:49:03;;;;;;;10.88;9.52;;;;;;;20.23;50.10;95138.56;5077156;28;20196;-72
2023/05/19 10:51:39;;;;;;;10.85;9.65;;;;;;;20.20;50.92;95142.97;5077105;28;20186;-72
2023/05/19 10:54:08;;;;;;;10.70;9.48;;;;;;;20.42;49.18;95126.78;5076044;28;20220;-73
2023/05/19 10:56:41;;;;;;;10.40;9.02;;;;;;;20.67;47.95;95132.16;5076434;28;20201;-73
2023/05/19 10:59:38;;;;;;;10.73;9.73;;;;;;;20.75;47.16;95127.25;5076016;28;20193;-71
2023/05/19 11:02:08;;;;;;;9.38;8.38;;;;;;;20.89;49.16;95124.28;5076739;28;20578;-74
2023/05/19 11:04:47;;;;;;;10.27;9.27;;;;;;;21.15;49.21;95119.16;5076266;28;20201;-74
2023/05/19 11:07:23;;;;;;;10.10;7.80;;;;;;;21.20;47.82;95127.09;5075723;28;20205;-74
2023/05/19 11:09:51;;;;;;;9.07;7.45;;;;;;;20.84;47.34;95115.53;5075962;28;20208;-74
2023/05/19 11:12:21;;;;;;;10.27;8.60;;;;;;;20.41;46.58;95121.59;5075852;28;20204;-73
2023/05/19 11:14:55;;;;;;;9.45;8.52;;;;;;;20.20;47.07;95119.78;5076068;28;20200;-73
2023/05/19 11:17:28;;;;;;;9.40;8.50;;;;;;;20.05;47.00;95124.72;5075973;28;20237;-74
2023/05/19 11:19:58;;;;;;;9.95;8.70;;;;;;;20.33;46.68;95126.44;5076866;28;20189;-72
2023/05/19 11:22:34;;;;;;;9.60;8.68;;;;;;;20.41;47.74;95113.97;5076316;28;20242;-73
2023/05/19 11:25:08;;;;;;;9.35;7.95;;;;;;;20.70;45.71;95116.50;5059500;28;20208;-74
2023/05/19 11:27:40;;;;;;;8.80;7.93;;;;;;;20.89;44.08;95113.06;5075850;28;20198;-72
2023/05/19 11:30:13;;;;;;;8.48;7.55;;;;;;;21.12;44.66;95109.56;5076057;28;20189;-72
2023/05/19 11:32:42;;;;;;;8.75;7.90;;;;;;;21.42;46.08;95110.00;5075583;28;20299;-73
2023/05/19 11:35:10;;;;;;;9.00;8.05;;;;;;;21.24;42.77;95105.44;5076314;28;20264;-71
2023/05/19 11:37:44;;;;;;;8.60;5.90;;;;;;;21.36;46.19;95104.09;5075283;28;20244;-71
2023/05/19 11:40:13;;;;;;;8.57;7.80;;;;;;;21.27;46.14;95106.59;5074912;28;20212;-73
2023/05/19 11:42:41;;;;;;;10.48;8.70;;;;;;;20.94;44.21;95106.19;5075311;28;20189;-72
2023/05/19 11:45:12;;;;;;;9.50;8.50;;;;;;;20.65;44.77;95105.75;5076030;28;20197;-68
2023/05/19 11:47:42;;;;;;;8.70;7.82;;;;;;;20.37;45.76;95109.59;5075116;28;20605;-68
2023/05/19 11:50:11;;;;;;;7.93;7.13;;;;;;;20.16;47.74;95103.03;5075965;28;20197;-68
2023/05/19 11:52:46;;;;;;;8.90;8.00;;;;;;;19.91;47.76;95110.84;5075106;28;20612;-69
2023/05/19 11:55:17;;;;;;;8.18;7.07;;;;;;;19.68;48.71;95111.41;5075382;28;20212;-74
2023/05/19 11:58:00;;;;;;;10.07;8.63;;;;;;;19.53;49.72;95119.06;5075225;28;20232;-74
2023/05/19 12:00:32;;;;;;;9.70;7.65;;;;;;;19.37;50.41;95119.56;5074942;28;20231;-71
2023/05/19 12:03:00;;;;;;;8.90;7.68;;;;;;;19.25;49.65;95128.44;5075986;28;20306;-72
2023/05/19 12:05:28;;;;;;;9.25;8.45;;;;;;;19.14;49.96;95131.28;5075333;28;20617;-74
2023/05/19 12:08:05;;;;;;;10.25;9.25;;;;;;;19.00;51.30;95131.34;5076049;28;20185;-73